createdAt,value
2019-01-09T00:00:39.725Z,5.10
2019-01-09T00:03:18.726Z,5.00
2019-01-09T00:06:06.846Z,5.10
2019-01-09T00:08:54.963Z,5.00
2019-01-09T00:11:49.202Z,5.00
2019-01-09T00:14:37.297Z,5.00
2019-01-09T00:17:25.421Z,5.10
2019-01-09T00:20:13.513Z,5.10
2019-01-09T00:23:01.572Z,5.10
2019-01-09T00:25:49.590Z,5.10
2019-01-09T00:28:37.712Z,5.10
2019-01-09T00:31:25.827Z,5.00
2019-01-09T00:34:13.942Z,5.00
2019-01-09T00:37:02.083Z,5.00
2019-01-09T00:39:50.109Z,5.00
2019-01-09T00:42:29.189Z,5.00
2019-01-09T00:45:17.284Z,5.00
2019-01-09T00:48:05.348Z,5.00
2019-01-09T00:50:53.366Z,4.90
2019-01-09T00:53:41.522Z,4.80
2019-01-09T00:56:29.622Z,4.70
2019-01-09T00:59:17.678Z,4.70
2019-01-09T01:02:25.031Z,4.60
2019-01-09T01:05:32.415Z,4.60
2019-01-09T01:11:55.344Z,4.70
2019-01-09T01:15:02.729Z,4.80
2019-01-09T01:18:10.098Z,4.80
2019-01-09T01:24:32.286Z,4.90
2019-01-09T01:30:22.152Z,4.90
2019-01-09T01:33:02.686Z,4.80
2019-01-09T01:35:43.997Z,4.80
2019-01-09T01:38:27.415Z,4.60
2019-01-09T01:48:04.331Z,4.30
2019-01-09T01:51:11.718Z,4.20
2019-01-09T01:54:19.103Z,4.20
2019-01-09T02:00:41.063Z,4.20
2019-01-09T02:06:57.066Z,4.10
2019-01-09T02:10:04.620Z,4.10
2019-01-09T02:13:12.001Z,4.10
2019-01-09T02:16:19.404Z,4.10
2019-01-09T02:22:35.419Z,4.10
2019-01-09T02:28:51.427Z,4.30
2019-01-09T02:34:40.128Z,4.30
2019-01-09T02:37:28.212Z,4.40
2019-01-09T02:40:16.274Z,4.40
2019-01-09T02:43:04.318Z,4.50
2019-01-09T02:45:52.345Z,4.50
2019-01-09T02:48:40.381Z,4.50
2019-01-09T02:51:09.084Z,4.50
2019-01-09T02:53:49.909Z,4.50
2019-01-09T02:56:30.981Z,4.50
2019-01-09T02:59:12.187Z,4.50
2019-01-09T03:01:53.325Z,4.50
2019-01-09T03:04:33.931Z,4.50
2019-01-09T03:07:12.933Z,4.40
2019-01-09T03:10:00.987Z,4.40
2019-01-09T03:12:49.003Z,4.40
2019-01-09T03:15:37.052Z,4.30
2019-01-09T03:18:25.069Z,4.10
2019-01-09T03:21:13.118Z,4.10
2019-01-09T03:24:01.129Z,4.00
2019-01-09T03:26:49.189Z,3.90
2019-01-09T03:29:37.346Z,3.80
2019-01-09T03:32:25.441Z,3.80
2019-01-09T03:35:13.508Z,3.70
2019-01-09T03:38:01.594Z,3.70
2019-01-09T03:40:42.389Z,3.70
2019-01-09T03:43:23.454Z,3.60
2019-01-09T03:46:04.666Z,3.60
2019-01-09T03:48:45.978Z,3.60
2019-01-09T03:51:27.238Z,3.50
2019-01-09T03:54:08.373Z,3.50
2019-01-09T03:56:49.453Z,3.50
2019-01-09T03:59:30.799Z,3.50
2019-01-09T04:02:12.136Z,3.40
2019-01-09T04:04:53.242Z,3.40
2019-01-09T04:07:34.808Z,3.40
2019-01-09T04:10:15.956Z,3.30
2019-01-09T04:12:57.328Z,3.30
2019-01-09T04:15:38.412Z,3.30
2019-01-09T04:18:19.759Z,3.30
2019-01-09T04:21:03.132Z,3.20
2019-01-09T04:23:44.369Z,3.20
2019-01-09T04:26:25.441Z,3.20
2019-01-09T04:29:04.482Z,3.20
2019-01-09T04:31:52.525Z,3.20
2019-01-09T04:34:40.548Z,3.20
2019-01-09T04:37:28.693Z,3.10
2019-01-09T04:40:30.825Z,3.10
2019-01-09T04:43:11.402Z,3.10
2019-01-09T04:45:52.770Z,3.00
2019-01-09T04:48:34.011Z,3.00
2019-01-09T04:51:15.016Z,3.00
2019-01-09T04:53:56.186Z,3.00
2019-01-09T04:56:37.570Z,2.90
2019-01-09T04:59:18.502Z,2.90
2019-01-09T05:01:59.546Z,2.90
2019-01-09T05:04:40.646Z,2.90
2019-01-09T05:07:21.973Z,2.90
2019-01-09T05:10:03.173Z,2.90
2019-01-09T05:12:44.545Z,2.80
2019-01-09T05:15:25.060Z,2.80
2019-01-09T05:18:06.145Z,2.80
2019-01-09T05:20:47.537Z,2.80
2019-01-09T05:23:28.062Z,2.90
2019-01-09T05:26:09.499Z,2.90
2019-01-09T05:28:50.433Z,2.90
2019-01-09T05:31:31.873Z,3.00
2019-01-09T05:34:13.237Z,3.10
2019-01-09T05:36:54.306Z,3.10
2019-01-09T05:39:39.837Z,3.00
2019-01-09T05:42:18.646Z,3.00
2019-01-09T05:44:59.534Z,2.90
2019-01-09T05:47:40.705Z,2.90
2019-01-09T05:50:21.908Z,2.90
2019-01-09T05:53:03.323Z,2.90
2019-01-09T05:55:44.281Z,2.80
2019-01-09T05:58:25.626Z,2.80
2019-01-09T06:01:06.975Z,2.80
2019-01-09T06:03:48.074Z,2.80
2019-01-09T06:06:29.246Z,2.80
2019-01-09T06:09:09.695Z,2.70
2019-01-09T06:11:51.054Z,2.70
2019-01-09T06:14:32.373Z,2.60
2019-01-09T06:17:13.860Z,2.60
2019-01-09T06:19:54.990Z,2.60
2019-01-09T06:22:36.295Z,2.60
2019-01-09T06:25:17.629Z,2.70
2019-01-09T06:27:58.847Z,2.60
2019-01-09T06:30:39.850Z,2.70
2019-01-09T06:33:21.165Z,2.70
2019-01-09T06:36:03.918Z,2.70
2019-01-09T06:38:45.378Z,2.70
2019-01-09T06:41:26.429Z,2.70
2019-01-09T06:44:07.741Z,2.70
2019-01-09T06:46:48.267Z,2.80
2019-01-09T06:49:29.427Z,2.80
2019-01-09T06:52:10.061Z,2.70
2019-01-09T06:54:51.383Z,2.70
2019-01-09T06:57:32.739Z,2.70
2019-01-09T07:00:13.867Z,2.70
2019-01-09T07:02:54.870Z,2.70
2019-01-09T07:05:36.260Z,2.70
2019-01-09T07:08:17.730Z,2.70
2019-01-09T07:10:59.113Z,2.70
2019-01-09T07:13:40.350Z,2.70
2019-01-09T07:16:21.645Z,2.70
2019-01-09T07:19:02.210Z,2.70
2019-01-09T07:21:45.674Z,2.70
2019-01-09T07:24:25.685Z,2.70
2019-01-09T07:27:06.886Z,2.70
2019-01-09T07:29:48.170Z,2.70
2019-01-09T07:32:29.538Z,2.70
2019-01-09T07:35:10.877Z,2.70
2019-01-09T07:37:51.958Z,2.80
2019-01-09T07:40:33.280Z,2.90
2019-01-09T07:43:14.550Z,3.10
2019-01-09T07:45:55.702Z,3.10
2019-01-09T07:48:37.017Z,3.10
2019-01-09T07:51:18.520Z,3.10
2019-01-09T07:54:00.131Z,3.00
2019-01-09T07:56:41.519Z,3.00
2019-01-09T07:59:22.741Z,3.00
2019-01-09T08:04:47.650Z,2.90
2019-01-09T08:07:28.617Z,2.90
2019-01-09T08:10:10.090Z,2.90
2019-01-09T08:12:49.140Z,2.90
2019-01-09T08:15:37.182Z,2.90
2019-01-09T08:18:25.229Z,2.90
2019-01-09T08:21:13.289Z,2.90
2019-01-09T08:24:01.445Z,3.00
2019-01-09T08:26:49.525Z,3.00
2019-01-09T08:29:30.784Z,3.10
2019-01-09T08:32:11.321Z,3.20
2019-01-09T08:34:52.548Z,3.40
2019-01-09T08:37:33.802Z,3.70
2019-01-09T08:40:14.758Z,3.70
2019-01-09T08:42:56.064Z,3.70
2019-01-09T08:45:37.233Z,3.70
2019-01-09T08:48:18.454Z,3.70
2019-01-09T08:50:59.707Z,3.60
2019-01-09T08:53:40.822Z,3.50
2019-01-09T08:56:22.056Z,3.50
2019-01-09T08:59:03.347Z,3.40
2019-01-09T09:01:44.327Z,3.40
2019-01-09T09:04:25.571Z,3.50
2019-01-09T09:07:07.058Z,3.50
2019-01-09T09:09:48.353Z,3.50
2019-01-09T09:12:29.819Z,3.60
2019-01-09T09:15:10.876Z,3.60
2019-01-09T09:17:52.082Z,3.70
2019-01-09T09:20:33.292Z,3.70
2019-01-09T09:23:14.427Z,3.70
2019-01-09T09:25:55.889Z,3.80
2019-01-09T09:28:24.683Z,3.80
2019-01-09T09:30:53.509Z,3.90
2019-01-09T09:33:22.213Z,3.90
2019-01-09T09:35:50.967Z,4.00
2019-01-09T09:38:20.768Z,4.10
2019-01-09T09:40:49.852Z,4.10
2019-01-09T09:43:18.552Z,4.20
2019-01-09T09:45:47.253Z,4.20
2019-01-09T09:48:15.942Z,4.30
2019-01-09T09:50:44.729Z,4.40
2019-01-09T09:53:13.405Z,4.40
2019-01-09T09:55:42.280Z,4.50
2019-01-09T09:58:10.994Z,4.60
2019-01-09T10:00:41.332Z,4.60
2019-01-09T10:03:10.023Z,4.60
2019-01-09T10:05:38.832Z,4.60
2019-01-09T10:08:07.573Z,4.70
2019-01-09T10:10:36.295Z,4.70
2019-01-09T10:13:05.066Z,4.80
2019-01-09T10:15:34.009Z,4.80
2019-01-09T10:18:02.778Z,5.00
2019-01-09T10:20:31.565Z,5.00
2019-01-09T10:23:00.409Z,5.10
2019-01-09T10:25:29.181Z,5.20
2019-01-09T10:27:57.883Z,5.20
2019-01-09T10:30:26.582Z,5.20
2019-01-09T10:32:55.355Z,5.30
2019-01-09T10:35:24.079Z,5.40
2019-01-09T10:37:52.781Z,5.50
2019-01-09T10:40:21.827Z,5.40
2019-01-09T10:42:50.538Z,5.40
2019-01-09T10:45:20.703Z,5.40
2019-01-09T10:47:49.638Z,5.30
2019-01-09T10:50:18.473Z,5.30
2019-01-09T10:52:47.556Z,5.40
2019-01-09T10:55:17.881Z,5.40
2019-01-09T10:57:46.737Z,5.40
2019-01-09T11:00:23.647Z,5.50
2019-01-09T11:02:52.774Z,5.50
2019-01-09T11:05:21.994Z,5.60
2019-01-09T11:07:50.768Z,5.70
2019-01-09T11:10:20.304Z,5.70
2019-01-09T11:12:49.288Z,5.80
2019-01-09T11:15:18.100Z,5.80
2019-01-09T11:17:46.968Z,5.90
2019-01-09T11:20:17.649Z,5.90
2019-01-09T11:22:46.556Z,6.00
2019-01-09T11:25:20.595Z,6.00
2019-01-09T11:27:49.378Z,6.10
2019-01-09T11:30:18.604Z,6.20
2019-01-09T11:32:47.571Z,6.20
2019-01-09T11:35:18.589Z,6.20
2019-01-09T11:37:47.380Z,6.20
2019-01-09T11:40:18.109Z,6.30
2019-01-09T11:42:46.913Z,6.30
2019-01-09T11:45:19.246Z,6.20
2019-01-09T11:47:48.402Z,6.30
2019-01-09T11:50:17.547Z,6.40
2019-01-09T11:52:46.230Z,6.50
2019-01-09T11:55:15.571Z,6.60
2019-01-09T11:57:44.264Z,6.70
2019-01-09T12:00:21.685Z,6.70
2019-01-09T12:02:50.479Z,6.80
2019-01-09T12:05:19.322Z,6.90
2019-01-09T12:07:48.353Z,6.90
2019-01-09T12:10:29.795Z,6.70
2019-01-09T12:12:53.007Z,6.70
2019-01-09T12:15:21.852Z,6.60
2019-01-09T12:17:50.549Z,6.70
2019-01-09T12:20:20.122Z,6.70
2019-01-09T12:22:49.404Z,6.90
2019-01-09T12:25:18.218Z,6.90
2019-01-09T12:27:47.126Z,7.00
2019-01-09T12:30:21.782Z,7.10
2019-01-09T12:32:50.497Z,7.10
2019-01-09T12:35:19.281Z,7.20
2019-01-09T12:37:48.606Z,7.10
2019-01-09T12:40:17.581Z,7.10
2019-01-09T12:42:46.368Z,7.00
2019-01-09T12:45:16.471Z,7.00
2019-01-09T12:47:45.181Z,7.00
2019-01-09T12:50:17.209Z,6.90
2019-01-09T12:52:46.048Z,6.80
2019-01-09T12:55:14.750Z,6.70
2019-01-09T12:57:43.857Z,6.60
2019-01-09T13:00:21.537Z,6.60
2019-01-09T13:02:50.406Z,6.60
2019-01-09T13:05:19.945Z,6.70
2019-01-09T13:07:48.718Z,6.70
2019-01-09T13:10:17.505Z,6.70
2019-01-09T13:12:46.605Z,6.60
2019-01-09T13:15:15.302Z,6.60
2019-01-09T13:17:44.169Z,6.60
2019-01-09T13:20:14.613Z,6.60
2019-01-09T13:22:43.472Z,6.40
2019-01-09T13:25:13.751Z,6.40
2019-01-09T13:27:43.008Z,6.40
2019-01-09T13:30:19.699Z,6.40
2019-01-09T13:32:48.568Z,6.40
2019-01-09T13:35:17.442Z,6.50
2019-01-09T13:37:46.425Z,6.50
2019-01-09T13:40:16.951Z,6.60
2019-01-09T13:42:46.354Z,6.70
2019-01-09T13:45:19.918Z,6.80
2019-01-09T13:47:48.974Z,6.80
2019-01-09T13:50:18.703Z,6.80
2019-01-09T13:52:47.413Z,6.90
2019-01-09T13:55:16.576Z,7.00
2019-01-09T13:57:45.444Z,7.00
2019-01-09T14:00:21.415Z,7.00
2019-01-09T14:02:50.485Z,7.00
2019-01-09T14:05:19.250Z,6.90
2019-01-09T14:07:48.186Z,6.80
2019-01-09T14:10:19.482Z,6.70
2019-01-09T14:12:48.224Z,6.70
2019-01-09T14:15:19.092Z,6.50
2019-01-09T14:17:48.220Z,6.50
2019-01-09T14:20:17.001Z,6.40
2019-01-09T14:22:46.859Z,6.30
2019-01-09T14:25:16.610Z,6.30
2019-01-09T14:27:45.386Z,6.30
2019-01-09T14:30:25.078Z,6.30
2019-01-09T14:32:53.833Z,6.20
2019-01-09T14:35:22.554Z,6.20
2019-01-09T14:37:51.315Z,6.20
2019-01-09T14:40:20.557Z,6.10
2019-01-09T14:42:49.245Z,6.00
2019-01-09T14:45:18.589Z,5.90
2019-01-09T14:47:47.353Z,5.80
2019-01-09T14:50:21.575Z,5.70
2019-01-09T14:52:50.361Z,5.60
2019-01-09T14:55:19.234Z,5.60
2019-01-09T14:57:48.373Z,5.60
2019-01-09T15:00:21.755Z,5.50
2019-01-09T15:02:50.622Z,5.50
2019-01-09T15:05:19.300Z,5.50
2019-01-09T15:07:48.184Z,5.50
2019-01-09T15:10:25.092Z,5.40
2019-01-09T15:12:53.926Z,5.40
2019-01-09T15:15:22.916Z,5.40
2019-01-09T15:17:51.746Z,5.40
2019-01-09T15:20:20.871Z,5.30
2019-01-09T15:22:49.760Z,5.30
2019-01-09T15:25:18.728Z,5.30
2019-01-09T15:27:47.525Z,5.20
2019-01-09T15:30:35.629Z,5.10
2019-01-09T15:33:36.102Z,5.10
2019-01-09T15:36:16.633Z,5.00
2019-01-09T15:38:57.784Z,4.90
2019-01-09T15:41:39.195Z,4.90
2019-01-09T15:44:19.707Z,4.80
2019-01-09T15:47:00.737Z,4.80
2019-01-09T15:49:42.412Z,4.90
2019-01-09T15:52:23.801Z,5.00
2019-01-09T15:55:04.799Z,5.00
2019-01-09T15:57:46.090Z,5.00
2019-01-09T16:00:26.992Z,5.00
2019-01-09T16:03:08.095Z,4.90
2019-01-09T16:05:49.446Z,4.80
2019-01-09T16:08:30.771Z,4.80
2019-01-09T16:11:11.891Z,4.80
2019-01-09T16:13:50.998Z,4.70
2019-01-09T16:16:39.033Z,4.70
2019-01-09T16:19:27.090Z,4.70
2019-01-09T16:22:15.131Z,4.70
2019-01-09T16:28:18.446Z,4.70
2019-01-09T16:30:59.781Z,4.70
2019-01-09T16:33:41.093Z,4.70
2019-01-09T16:36:22.477Z,4.70
2019-01-09T16:39:03.653Z,4.70
2019-01-09T16:41:44.914Z,4.60
2019-01-09T16:44:26.314Z,4.60
2019-01-09T16:47:06.877Z,4.50
2019-01-09T16:49:48.292Z,4.50
2019-01-09T16:52:29.722Z,4.40
2019-01-09T16:55:11.131Z,4.40
2019-01-09T16:57:52.254Z,4.40
2019-01-09T17:00:36.171Z,4.40
2019-01-09T17:03:17.178Z,4.40
2019-01-09T17:05:58.416Z,4.20
2019-01-09T17:08:40.045Z,4.10
2019-01-09T17:11:20.772Z,4.10
2019-01-09T17:14:01.921Z,4.10
2019-01-09T17:16:43.281Z,4.10
2019-01-09T17:19:24.651Z,4.10
2019-01-09T17:22:05.894Z,4.10
2019-01-09T17:24:47.315Z,4.10
2019-01-09T17:27:28.719Z,4.00
2019-01-09T17:30:09.789Z,4.00
2019-01-09T17:32:51.124Z,4.00
2019-01-09T17:35:31.674Z,4.00
2019-01-09T17:38:13.155Z,4.00
2019-01-09T17:40:54.332Z,4.00
2019-01-09T17:43:34.857Z,4.10
2019-01-09T17:46:15.424Z,4.10
2019-01-09T17:48:59.526Z,4.10
2019-01-09T17:51:40.964Z,4.00
2019-01-09T17:54:22.145Z,4.00
2019-01-09T17:57:02.715Z,3.90
2019-01-09T17:59:44.065Z,3.90
2019-01-09T18:02:25.552Z,3.80
2019-01-09T18:05:07.600Z,3.80
2019-01-09T18:07:49.002Z,3.80
2019-01-09T18:10:30.506Z,3.80
2019-01-09T18:15:51.313Z,3.80
2019-01-09T18:18:34.555Z,3.90
2019-01-09T18:21:15.738Z,3.90
2019-01-09T18:23:54.854Z,4.00
2019-01-09T18:26:42.885Z,4.00
2019-01-09T18:29:30.977Z,4.00
2019-01-09T18:32:11.585Z,4.00
2019-01-09T18:34:52.998Z,4.00
2019-01-09T18:37:34.102Z,3.90
2019-01-09T18:40:15.377Z,3.90
2019-01-09T18:42:56.513Z,4.00
2019-01-09T18:45:37.168Z,4.00
2019-01-09T18:48:18.526Z,3.90
2019-01-09T18:50:59.839Z,3.90
2019-01-09T18:53:40.381Z,3.80
2019-01-09T18:56:21.669Z,3.80
2019-01-09T18:59:03.022Z,3.80
2019-01-09T19:01:44.275Z,3.80
2019-01-09T19:04:25.662Z,3.80
2019-01-09T19:07:06.961Z,3.80
2019-01-09T19:09:48.079Z,3.90
2019-01-09T19:12:29.121Z,3.80
2019-01-09T19:15:10.553Z,3.80
2019-01-09T19:17:51.613Z,3.80
2019-01-09T19:20:32.988Z,3.80
2019-01-09T19:23:13.977Z,3.80
2019-01-09T19:25:55.305Z,3.70
2019-01-09T19:28:36.786Z,3.70
2019-01-09T19:31:18.042Z,3.70
2019-01-09T19:33:59.199Z,3.60
2019-01-09T19:36:40.542Z,3.60
2019-01-09T19:39:21.273Z,3.60
2019-01-09T19:42:02.152Z,3.50
2019-01-09T19:44:43.213Z,3.50
2019-01-09T19:47:24.526Z,3.50
2019-01-09T19:50:05.906Z,3.40
2019-01-09T19:52:46.566Z,3.40
2019-01-09T19:55:27.816Z,3.40
2019-01-09T19:58:08.778Z,3.40
2019-01-09T20:00:50.006Z,3.30
2019-01-09T20:03:31.295Z,3.30
2019-01-09T20:06:12.488Z,3.30
2019-01-09T20:08:53.634Z,3.30
2019-01-09T20:11:34.967Z,3.40
2019-01-09T20:14:16.413Z,3.40
2019-01-09T20:16:57.017Z,3.40
2019-01-09T20:19:39.042Z,3.40
2019-01-09T20:22:18.136Z,3.30
2019-01-09T20:25:07.098Z,3.30
2019-01-09T20:28:16.716Z,3.30
2019-01-09T20:31:26.366Z,3.30
2019-01-09T20:34:14.586Z,3.20
2019-01-09T20:37:24.227Z,3.30
2019-01-09T20:43:29.307Z,3.30
2019-01-09T20:46:37.413Z,3.30
2019-01-09T20:49:25.613Z,3.30
2019-01-09T20:52:35.298Z,3.30
2019-01-09T20:55:23.481Z,3.30
2019-01-09T20:58:04.986Z,3.30
2019-01-09T21:00:46.436Z,3.30
2019-01-09T21:03:27.845Z,3.40
2019-01-09T21:06:09.112Z,3.40
2019-01-09T21:08:59.267Z,3.30
2019-01-09T21:11:33.465Z,3.30
2019-01-09T21:14:14.745Z,3.30
2019-01-09T21:16:55.787Z,3.20
2019-01-09T21:19:37.192Z,3.20
2019-01-09T21:22:18.275Z,3.20
2019-01-09T21:24:58.873Z,3.20
2019-01-09T21:27:42.435Z,3.20
2019-01-09T21:30:23.274Z,3.10
2019-01-09T21:33:04.388Z,3.10
2019-01-09T21:35:45.718Z,3.00
2019-01-09T21:38:26.254Z,2.90
2019-01-09T21:41:07.281Z,2.80
2019-01-09T21:43:48.426Z,2.70
2019-01-09T21:46:29.746Z,2.60
2019-01-09T21:49:11.106Z,2.50
2019-01-09T21:51:52.520Z,2.50
2019-01-09T21:54:33.834Z,2.40
2019-01-09T21:57:15.156Z,2.40
2019-01-09T21:59:56.290Z,2.30
2019-01-09T22:02:37.453Z,2.20
2019-01-09T22:05:18.512Z,2.20
2019-01-09T22:07:59.882Z,2.20
2019-01-09T22:10:41.236Z,2.10
2019-01-09T22:13:22.249Z,2.10
2019-01-09T22:16:03.554Z,2.10
2019-01-09T22:18:44.015Z,2.00
2019-01-09T22:21:25.157Z,2.00
2019-01-09T22:24:06.554Z,2.00
2019-01-09T22:26:47.673Z,1.90
2019-01-09T22:29:28.982Z,1.90
2019-01-09T22:32:10.438Z,1.80
2019-01-09T22:34:51.770Z,1.80
2019-01-09T22:37:32.881Z,1.70
2019-01-09T22:40:13.989Z,1.70
2019-01-09T22:42:54.485Z,1.70
2019-01-09T22:45:35.713Z,1.60
2019-01-09T22:48:16.200Z,1.60
2019-01-09T22:50:56.690Z,1.60
2019-01-09T22:53:35.791Z,1.60
2019-01-09T22:56:21.106Z,1.60
2019-01-09T22:59:02.427Z,1.50
2019-01-09T23:04:34.390Z,1.60
2019-01-09T23:07:15.645Z,1.70
2019-01-09T23:15:26.702Z,1.70
2019-01-09T23:18:08.019Z,1.80
2019-01-09T23:20:48.550Z,1.90
2019-01-09T23:23:29.826Z,2.00
2019-01-09T23:26:11.106Z,2.10
2019-01-09T23:28:52.135Z,2.10
2019-01-09T23:31:33.231Z,2.20
2019-01-09T23:34:14.651Z,2.20
2019-01-09T23:36:55.779Z,2.10
2019-01-09T23:39:36.881Z,2.10
2019-01-09T23:42:18.142Z,2.00
2019-01-09T23:44:59.474Z,2.00
2019-01-09T23:47:41.305Z,1.90
2019-01-09T23:50:22.561Z,1.80
2019-01-09T23:53:03.847Z,1.70
2019-01-09T23:55:44.937Z,1.70
2019-01-09T23:58:26.129Z,1.70
